Tiempo atmosférico en la estación meteorológica de Salobreña, Granada (20 m.)



Fecha
DESCASC
Temp. máxima en grados centígrados (hora)
DESCASC
Temp. mínima en grados centígrados (hora)
DESCASC
Temp. media en grados centígrados
DESCASC
Racha de viento máxima en m/sg (hora)
DESCASC
Velocidad máxima media en intervalos de 10 minutos(hora)
DESCASC
Precipitaciones diarias en mm
DESCASC
Precipitaciones de 00:00 a 06:00 en mm
DESCASC
Precipitaciones de 06:00 a 12:00 en mm
DESCASC
Precipitaciones de 12:00 a 18:00 en mm
DESCASC
Precipitaciones de 18:00 a 24:00 en mm
DESCASC
27-01-2020 17.5 (12:10) 8.1 (07:40) 12.8 8.89 (17:00) 5.56 (05:20) 0 0 0 0 0
26-01-2020 18.8 (13:40) 7.4 (07:40) 13.1 11.11 (15:00) 6.39 (15:00) 0.2 0.2 0 0 0
25-01-2020 13.9 (14:10) 9.2 (00:00) 11.5 12.22 (10:00) 5.83 (09:50) 36.4 0.2 33.8 2 0.4
24-01-2020 17.4 (12:10) 10.1 (00:00) 13.8 7.22 (16:30) 5 (16:10) 3.2 3.2 0 0 0
23-01-2020 17.7 (15:10) 7.7 (00:00) 12.7 8.61 (15:50) 5.28 (15:50) 0 0 0 0 0
22-01-2020 13.1 (13:40) 7.3 (00:00) 10.2 6.67 (01:40) 3.89 (12:50) 17.6 2.8 0 8.2 6.6
21-01-2020 13.9 (13:00) 9.1 (00:00) 11.5 6.39 (04:50) 3.89 (02:00) 18 0 0 4 14
20-01-2020 11.8 (11:50) 7.8 (00:00) 9.8 6.67 (04:10) 4.17 (06:00) 2 0 1.4 0.6 0
19-01-2020 17.8 (12:40) 9.2 (00:00) 13.5 17.22 (11:00) 9.44 (11:00) 0 0 0 0 0
18-01-2020 16 (15:20) 9.3 (00:00) 12.7 8.89 (01:00) 5.83 (00:10) 0.4 0 0 0.4 0
17-01-2020 21.2 (14:40) 5.6 (00:00) 13.4 8.61 (16:40) 6.11 (23:59) 0 0 0 0 0
16-01-2020 19.5 (12:40) 5.5 (00:00) 12.5 5.28 (08:30) 2.78 (13:20) 0 0 0 0 0
15-01-2020 17.5 (12:20) 5.8 (00:00) 11.7 5.28 (14:00) 3.33 (14:40) 0 0 0 0 0
14-01-2020 16.8 (14:30) 3.4 (00:00) 10.1 8.61 (15:10) 4.17 (16:40) 0 0 0 0 0
13-01-2020 16.8 (12:20) 6.5 (00:00) 11.6 6.11 (09:00) 3.61 (09:30) 0 0 0 0 0
12-01-2020 16.8 (11:50) 7.9 (00:00) 12.3 6.11 (15:10) 3.89 (10:30) 0 0 0 0 0
11-01-2020 17.9 (12:20) 7.5 (00:00) 12.7 6.67 (02:40) 4.17 (02:20) 0 0 0 0 0
10-01-2020 17.4 (15:40) 5.9 (00:00) 11.6 7.5 (12:40) 4.17 (12:50) 0 0 0 0 0
09-01-2020 17 (13:20) 9.1 (00:00) 13.1 5.56 (09:20) 3.33 (08:40) 0 0 0 0 0
08-01-2020 16.6 (15:00) 5 (00:00) 10.8 4.17 (13:40) 2.78 (23:59) 0 0 0 0 0
07-01-2020 16.8 (12:10) 5.6 (00:00) 11.2 5.28 (04:40) 3.33 (04:40) 0 0 0 0 0
06-01-2020 17 (15:00) 7.2 (00:00) 12.1 5.83 (06:50) 3.61 (09:20) 0 0 0 0 0
05-01-2020 17.5 (13:00) 8.2 (00:00) 12.8 6.39 (14:30) 4.17 (14:30) 0 0 0 0 0
04-01-2020 17 (14:00) 7.5 (00:00) 12.3 7.78 (16:20) 4.72 (16:20) 0 0 0 0 0
03-01-2020 16.1 (11:50) 6.8 (00:00) 11.5 6.94 (16:30) 3.89 (14:40) 0 0 0 0 0
02-01-2020 16.5 (14:50) 8.9 (00:00) 12.7 5.28 (11:10) 3.33 (10:00) 0 0 0 0 0
01-01-2020 17.2 (12:10) 7.5 (00:00) 12.4 5.56 (10:10) 3.61 (10:20) 0 0 0 0 0
31-12-2019 17.2 (12:10) 8 (00:00) 12.6 6.67 (13:50) 3.89 (13:20) 0 0 0 0 0
30-12-2019 -- (--) -- (--) -- -- (--) -- (--) -- 0 0 0 --
29-12-2019 17.6 (12:40) 8.1 (00:00) 12.9 7.5 (13:00) 4.44 (13:10) 0 0 0 0 0

Gráficas

Temp. máximas Temp. mínimas Temp. medias Precipitaciones Rachas de viento máximas Velocidades máximas media en intervalos de 10 minutos

Datos horarios

Fecha y hora oficial Temperatura (ºC) Velocidad del viento (km/h) Dirección del viento Racha (km/h) Dirección de racha Precipitación (mm) Presión (hPa) Tendencia (hPa) Humedad (%)
2020-01-27 23:00:00 8.6 2 Este 11 Nordeste 0 -- -- 93
2020-01-27 22:00:00 8.5 3 Norte 9 Noroeste 0 -- -- 92
2020-01-27 21:00:00 9.6 3 Oeste 13 Norte 0 -- -- 90
2020-01-27 20:00:00 10.3 4 Noroeste 12 Norte 0 -- -- 89
2020-01-27 19:00:00 13.7 6 Noroeste 26 Oeste 0 -- -- 73
2020-01-27 18:00:00 15 13 Oeste 27 Oeste 0 -- -- 71
2020-01-27 17:00:00 16 13 Oeste 32 Oeste 0 -- -- 60
2020-01-27 16:00:00 16.2 13 Sudoeste 30 Sudoeste 0 -- -- 64
2020-01-27 15:00:00 16.1 13 Oeste 28 Sur 0 -- -- 59
2020-01-27 14:00:00 16 12 Sudoeste 22 Sudoeste 0 -- -- 54
2020-01-27 13:00:00 16.1 12 Sudoeste 20 Sudoeste 0 -- -- 62
2020-01-27 12:00:00 17.3 3 Noroeste 20 Nordeste 0 -- -- 49
2020-01-27 11:00:00 15.2 12 Nordeste 21 Este 0 -- -- 57
2020-01-27 10:00:00 12.4 12 Nordeste 18 Nordeste 0 -- -- 65
2020-01-27 09:00:00 8.9 7 Nordeste 19 Nordeste 0 -- -- 77
2020-01-27 08:00:00 8.6 13 Nordeste 23 Nordeste 0 -- -- 76
2020-01-27 07:00:00 8.7 10 Nordeste 19 Nordeste 0 -- -- 75
2020-01-27 06:00:00 9.9 14 Nordeste 32 Nordeste 0 -- -- 70
2020-01-27 05:00:00 10.2 17 Nordeste 30 Nordeste 0 -- -- 70
2020-01-27 04:00:00 10.7 19 Nordeste 32 Nordeste 0 -- -- 69
2020-01-27 03:00:00 11.2 17 Nordeste 28 Nordeste 0 -- -- 66
2020-01-27 02:00:00 11.4 13 Nordeste 28 Nordeste 0 -- -- 65
2020-01-27 01:00:00 11.7 14 Nordeste 23 Nordeste 0 -- -- 65
2020-01-27 00:00:00 11.9 12 Nordeste 22 Nordeste 0 -- -- 66
2020-01-26 23:00:00 12.6 13 Nordeste 26 Nordeste 0 -- -- 63
2020-01-26 22:00:00 12.7 13 Nordeste 22 Este 0 -- -- 64
2020-01-26 21:00:00 12.7 9 Nordeste 22 Norte 0 -- -- 63
2020-01-26 20:00:00 13.4 12 Norte 23 Norte 0 -- -- 61
2020-01-26 19:00:00 12.4 9 Norte 15 Norte 0 -- -- 69
2020-01-26 18:00:00 16.5 5 Norte 18 Noroeste 0 -- -- 62
2020-01-26 17:00:00 18.3 10 Noroeste 24 Noroeste 0 -- -- 48
2020-01-26 16:00:00 18.2 6 Oeste 36 Noroeste 0 -- -- 60
2020-01-26 15:00:00 17.2 23 Oeste 40 Oeste 0 -- -- 68
2020-01-26 14:00:00 18.7 14 Oeste 32 Oeste 0 -- -- 53
2020-01-26 13:00:00 18.4 10 Noroeste 25 Norte 0 -- -- 54
2020-01-26 12:00:00 17.3 14 Norte 34 Norte 0 -- -- 54
2020-01-26 11:00:00 15.8 15 Norte 32 Noroeste 0 -- -- 60
2020-01-26 10:00:00 13.7 11 Norte 24 Norte 0 -- -- 75
2020-01-26 09:00:00 8.7 8 Norte 17 Norte 0 -- -- 96
2020-01-26 08:00:00 7.6 9 Norte 11 Norte 0 -- -- 97
2020-01-26 07:00:00 8 7 Norte 15 Nordeste 0 -- -- 97
2020-01-26 06:00:00 8.4 7 Nordeste 10 Norte 0 -- -- 99
2020-01-26 05:00:00 7.8 7 Nordeste 10 Norte 0 -- -- 98
2020-01-26 04:00:00 8.3 4 Norte 9 Nordeste 0 -- -- 98
2020-01-26 03:00:00 9 5 Nordeste 10 Nordeste 0.2 -- -- 97
2020-01-26 02:00:00 9.1 6 Nordeste 9 Norte 0 -- -- 97
2020-01-26 01:00:00 9.9 4 Nordeste 7 Nordeste 0 -- -- 96
2020-01-26 00:00:00 11 3 Norte 6 Nordeste 0.2 -- -- 96
2020-01-25 23:00:00 11.3 4 Noroeste 18 Noroeste 0 -- -- 94
2020-01-25 22:00:00 11.1 6 Norte 14 Noroeste 0.2 -- -- 97
2020-01-25 21:00:00 11.1 3 Oeste 9 Oeste 0 -- -- 97
2020-01-25 20:00:00 11 5 Norte 9 Norte 0 -- -- 97
2020-01-25 19:00:00 11.2 6 Norte 8 Norte 0 -- -- 92
2020-01-25 18:00:00 12.9 0 Calma 9 Este 0 -- -- 91
2020-01-25 17:00:00 13.2 7 Este 12 Nordeste 0 -- -- 88
2020-01-25 16:00:00 13.2 4 Nordeste 13 Oeste 0.8 -- -- 91
2020-01-25 15:00:00 13.2 7 Este 22 Este 0 -- -- 81
2020-01-25 14:00:00 13.6 13 Este 23 Este 0 -- -- 89
2020-01-25 13:00:00 10.1 14 Nordeste 28 Nordeste 1.2 -- -- 95
2020-01-25 12:00:00 10 12 Nordeste 23 Este 5.6 -- -- 95
2020-01-25 11:00:00 9.2 7 Este 23 Norte 25.8 -- -- 93
2020-01-25 10:00:00 11.8 14 Noroeste 44 Sudoeste 2.2 -- -- 88
2020-01-25 09:00:00 11.3 8 Nordeste 12 Nordeste 0.2 -- -- 93
2020-01-25 08:00:00 11.2 7 Nordeste 15 Nordeste 0 -- -- 93
2020-01-25 07:00:00 11.1 8 Nordeste 12 Nordeste 0 -- -- 95
2020-01-25 06:00:00 11.3 6 Nordeste 12 Norte 0 -- -- 95
2020-01-25 05:00:00 11.5 3 Este 10 Nordeste 0 -- -- 93
2020-01-25 04:00:00 12.5 4 Sudeste 18 Noroeste 0.2 -- -- 93
2020-01-25 03:00:00 11.4 3 Nordeste 11 Norte 0 -- -- 95
2020-01-25 02:00:00 11.4 0 Calma 8 Norte 0 -- -- 94
2020-01-25 01:00:00 11.6 3 Este 9 Nordeste 0 -- -- 92
2020-01-25 00:00:00 11.6 5 Nordeste 9 Nordeste 0 -- -- 92
2020-01-24 23:00:00 12 5 Nordeste 13 Nordeste 0 -- -- 93
2020-01-24 22:00:00 12 6 Nordeste 10 Nordeste 0 -- -- 95
2020-01-24 21:00:00 11.9 5 Norte 9 Nordeste 0 -- -- 94
2020-01-24 20:00:00 12.1 4 Norte 8 Este 0 -- -- 93
2020-01-24 19:00:00 12.9 2 Nordeste 3 Nordeste 0 -- -- 89
2020-01-24 18:00:00 14.2 0 Calma 17 Sur 0 -- -- 84
2020-01-24 17:00:00 15 12 Sur 26 Sudeste 0 -- -- 80
2020-01-24 16:00:00 16.6 13 Sur 24 Sur 0 -- -- 69
2020-01-24 15:00:00 17.1 13 Sur 22 Sudeste 0 -- -- 69
2020-01-24 14:00:00 16.7 7 Sur 15 Sur 0 -- -- 67
2020-01-24 13:00:00 15.7 11 Sudoeste 17 Sur 0 -- -- 76
2020-01-24 12:00:00 17.2 3 Sudoeste 14 Este 0 -- -- 54
2020-01-24 11:00:00 15.1 8 Nordeste 15 Nordeste 0 -- -- 74
2020-01-24 10:00:00 11.8 5 Nordeste 14 Nordeste 0 -- -- 87
2020-01-24 09:00:00 10.6 8 Nordeste 13 Nordeste 0 -- -- 91
2020-01-24 08:00:00 10.3 4 Norte 14 Nordeste 0 -- -- 91
2020-01-24 07:00:00 10.8 6 Nordeste 22 Nordeste 0 -- -- 89
2020-01-24 06:00:00 10.6 9 Nordeste 17 Nordeste 1.8 -- -- 93
2020-01-24 05:00:00 11 7 Nordeste 14 Nordeste 0.6 -- -- 93
2020-01-24 04:00:00 11.6 3 Nordeste 10 Norte 0.8 -- -- 91
2020-01-24 03:00:00 12.5 6 Nordeste 12 Este 0 -- -- 88
2020-01-24 02:00:00 12.4 3 Norte 17 Oeste 0 -- -- 88
2020-01-24 01:00:00 10.6 6 Nordeste 9 Nordeste 0 -- -- 92
2020-01-24 00:00:00 10.1 7 Norte 15 Nordeste 0 -- -- 91
2020-01-23 23:00:00 10.2 6 Nordeste 12 Norte 0 -- -- 90
2020-01-23 22:00:00 12 8 Nordeste 15 Nordeste 0 -- -- 86
2020-01-23 21:00:00 12.3 7 Nordeste 13 Nordeste 0 -- -- 91
2020-01-23 20:00:00 12.5 3 Oeste 8 Noroeste 0 -- -- 90
2020-01-23 19:00:00 14 4 Sudeste 15 Sudeste 0 -- -- 81
2020-01-23 18:00:00 14.6 9 Sur 23 Sudeste 0 -- -- 77
2020-01-23 17:00:00 16.2 13 Sur 30 Sudeste 0 -- -- 68
2020-01-23 16:00:00 16.8 18 Sur 31 Sur 0 -- -- 70
2020-01-23 15:00:00 17.5 12 Sur 24 Sur 0 -- -- 64
2020-01-23 14:00:00 17.3 12 Sur 26 Sudeste 0 -- -- 60
2020-01-23 13:00:00 17 14 Sudeste 27 Sudeste 0 -- -- 65
2020-01-23 12:00:00 14.7 13 Sur 20 Sur 0 -- -- 77
2020-01-23 11:00:00 12.6 5 Nordeste 14 Nordeste 0 -- -- 85
2020-01-23 10:00:00 10.8 8 Nordeste 14 Nordeste 0 -- -- 87
2020-01-23 09:00:00 9.2 11 Nordeste 15 Nordeste 0 -- -- 91
2020-01-23 08:00:00 8.3 10 Nordeste 14 Nordeste 0 -- -- 94
2020-01-23 07:00:00 7.7 7 Nordeste 14 Nordeste 0 -- -- 94
2020-01-23 06:00:00 7.8 10 Nordeste 15 Nordeste 0 -- -- 95
2020-01-23 05:00:00 8 11 Nordeste 15 Nordeste 0 -- -- 94
2020-01-23 04:00:00 8.1 8 Nordeste 12 Nordeste 0 -- -- 94
2020-01-23 03:00:00 8.8 9 Nordeste 13 Norte 0 -- -- 94
2020-01-23 02:00:00 8.8 7 Nordeste 14 Nordeste 0 -- -- 94
2020-01-23 01:00:00 8.2 9 Nordeste 15 Nordeste 0 -- -- 94
2020-01-23 00:00:00 8.2 8 Nordeste 15 Nordeste 0 -- -- 93
2020-01-22 23:00:00 8.6 8 Nordeste 15 Este 0 -- -- 92
2020-01-22 22:00:00 9.4 10 Este 19 Nordeste 0 -- -- 90
2020-01-22 21:00:00 9.8 12 Nordeste 21 Este 0 -- -- 94
2020-01-22 20:00:00 10.2 8 Este 21 Nordeste 3.2 -- -- 95
2020-01-22 19:00:00 10.8 5 Nordeste 13 Nordeste 3.4 -- -- 95
2020-01-22 18:00:00 11.3 9 Nordeste 15 Nordeste 3.2 -- -- 96
2020-01-22 17:00:00 11.5 5 Nordeste 7 Nordeste 3 -- -- 94
2020-01-22 16:00:00 12 2 Nordeste 12 Nordeste 1.8 -- -- 91
2020-01-22 15:00:00 12.5 3 Norte 12 Nordeste 0.2 -- -- 88
2020-01-22 14:00:00 13 5 Este 17 Oeste 0 -- -- 85
2020-01-22 13:00:00 12.9 12 Oeste 24 Oeste 0 -- -- 80
2020-01-22 12:00:00 12.9 4 Norte 10 Noroeste 0 -- -- 84
2020-01-22 11:00:00 12.5 5 Nordeste 13 Nordeste 0 -- -- 85
2020-01-22 10:00:00 10.5 8 Nordeste 13 Este 0 -- -- 91
2020-01-22 09:00:00 9.1 6 Nordeste 12 Nordeste 0 -- -- 93
2020-01-22 08:00:00 8.7 8 Nordeste 14 Nordeste 0 -- -- 93
2020-01-22 07:00:00 8.1 9 Nordeste 13 Nordeste 0 -- -- 96
2020-01-22 06:00:00 7.4 8 Nordeste 12 Nordeste 0 -- -- 95
2020-01-22 05:00:00 7.8 9 Nordeste 12 Nordeste 0 -- -- 95
2020-01-22 04:00:00 8 8 Norte 14 Este 0 -- -- 93
2020-01-22 03:00:00 8.8 6 Este 20 Este 0 -- -- 91
2020-01-22 02:00:00 9 11 Nordeste 24 Nordeste 0 -- -- 93
2020-01-22 01:00:00 8.9 11 Nordeste 24 Nordeste 2.8 -- -- 96
2020-01-22 00:00:00 9.3 8 Nordeste 15 Nordeste 7.2 -- -- 97
2020-01-21 23:00:00 9.7 2 Norte 5 Nordeste 1.4 -- -- 97
2020-01-21 22:00:00 9.7 4 Nordeste 7 Nordeste 1.8 -- -- 97
2020-01-21 21:00:00 9.7 6 Nordeste 8 Nordeste 1 -- -- 96
2020-01-21 20:00:00 9.6 4 Norte 6 Norte 0 -- -- 96
2020-01-21 19:00:00 9.9 4 Norte 6 Sur 2.6 -- -- 94
2020-01-21 18:00:00 10.2 6 Sudeste 16 Sudeste 2.6 -- -- 91
2020-01-21 17:00:00 11.7 3 Este 10 Oeste 0.4 -- -- 87
2020-01-21 16:00:00 12.9 4 Oeste 9 Sudoeste 0 -- -- 79
2020-01-21 15:00:00 11.8 5 Oeste 17 Sudoeste 1 -- -- 88
2020-01-21 14:00:00 12.8 6 Sur 20 Sudoeste 0 -- -- 71
2020-01-21 13:00:00 13.9 5 Nordeste 13 Nordeste 0 -- -- 61
2020-01-21 12:00:00 13 6 Nordeste 18 Nordeste 0 -- -- 63
2020-01-21 11:00:00 11.9 9 Nordeste 19 Nordeste 0 -- -- 66
2020-01-21 10:00:00 10.1 8 Nordeste 15 Nordeste 0 -- -- 73
2020-01-21 09:00:00 9.4 6 Norte 14 Nordeste 0 -- -- 77
2020-01-21 08:00:00 9.5 6 Nordeste 19 Nordeste 0 -- -- 72
2020-01-21 07:00:00 10 10 Nordeste 15 Nordeste 0 -- -- 68
2020-01-21 06:00:00 9.6 8 Nordeste 17 Nordeste 0 -- -- 71
2020-01-21 05:00:00 9.6 12 Nordeste 23 Nordeste 0 -- -- 69
2020-01-21 04:00:00 9.4 7 Norte 18 Nordeste 0 -- -- 72
2020-01-21 03:00:00 9.2 10 Nordeste 22 Nordeste 0 -- -- 72
2020-01-21 02:00:00 9.7 14 Nordeste 23 Nordeste 0 -- -- 70
2020-01-21 01:00:00 9.5 10 Nordeste 17 Nordeste 0 -- -- 73
2020-01-21 00:00:00 9.7 4 Norte 14 Este 0 -- -- 77
2020-01-20 23:00:00 10.1 5 Nordeste 18 Nordeste 0 -- -- 75
2020-01-20 22:00:00 10.2 8 Nordeste 18 Nordeste 0 -- -- 75
2020-01-20 21:00:00 10.4 8 Nordeste 22 Norte 0 -- -- 74
2020-01-20 20:00:00 9.6 9 Nordeste 15 Nordeste 0 -- -- 82
2020-01-20 19:00:00 9.4 6 Nordeste 10 Nordeste 0 -- -- 89
2020-01-20 18:00:00 10 4 Nordeste 12 Norte 0 -- -- 87
2020-01-20 17:00:00 10.2 7 Nordeste 12 Nordeste 0.2 -- -- 85
2020-01-20 16:00:00 10.6 4 Noroeste 9 Sur 0 -- -- 77
2020-01-20 15:00:00 10.6 9 Sudoeste 16 Sur 0.4 -- -- 72
2020-01-20 14:00:00 11.4 6 Sudoeste 11 Nordeste 0 -- -- 60
2020-01-20 13:00:00 11.3 10 Nordeste 22 Nordeste 0 -- -- 59
2020-01-20 12:00:00 11.8 13 Nordeste 23 Nordeste 0 -- -- 56
2020-01-20 11:00:00 10.4 10 Nordeste 23 Nordeste 0 -- -- 61
2020-01-20 10:00:00 9.1 9 Nordeste 20 Nordeste 0 -- -- 67
2020-01-20 09:00:00 7.8 5 Nordeste 17 Nordeste 0 -- -- 77
2020-01-20 08:00:00 7.9 7 Nordeste 20 Norte 0.4 -- -- 82
2020-01-20 07:00:00 8.9 6 Norte 22 Nordeste 1 -- -- 76
2020-01-20 06:00:00 10.2 15 Nordeste 24 Este 0 -- -- 58
2020-01-20 05:00:00 10 10 Nordeste 24 Nordeste 0 -- -- 61
2020-01-20 04:00:00 10.2 14 Nordeste 23 Este 0 -- -- 60
2020-01-20 03:00:00 10.1 7 Nordeste 18 Norte 0 -- -- 62
2020-01-20 02:00:00 10.1 10 Nordeste 15 Este 0 -- -- 61
2020-01-20 01:00:00 9.8 9 Nordeste 15 Norte 0 -- -- 65
2020-01-20 00:00:00 9.2 7 Nordeste 12 Nordeste 0 -- -- 74
2020-01-19 23:00:00 12.2 5 Este 27 Sudeste 0 -- -- 68
2020-01-19 22:00:00 12.6 14 Sudeste 26 Sudeste 0 -- -- 65
2020-01-19 21:00:00 12.5 13 Este 24 Nordeste 0 -- -- 53
2020-01-19 20:00:00 13 17 Norte 35 Nordeste 0 -- -- 50
2020-01-19 19:00:00 13.2 13 Nordeste 31 Nordeste 0 -- -- 50
2020-01-19 18:00:00 14 21 Norte 41 Norte 0 -- -- 47
2020-01-19 17:00:00 14.2 26 Norte 49 Norte 0 -- -- 49
2020-01-19 16:00:00 14.2 28 Norte 55 Norte 0 -- -- 52
2020-01-19 15:00:00 17.3 22 Norte 51 Norte 0 -- -- 41
2020-01-19 14:00:00 16.7 25 Norte 57 Norte 0 -- -- 43
2020-01-19 13:00:00 17.3 29 Norte 51 Norte 0 -- -- 40
2020-01-19 12:00:00 16.1 29 Norte 59 Norte 0 -- -- 51
2020-01-19 11:00:00 14.8 34 Norte 62 Norte 0 -- -- 52
2020-01-19 10:00:00 14.9 13 Noroeste 40 Oeste 0 -- -- 54
2020-01-19 09:00:00 13.6 6 Sur 37 Noroeste 0 -- -- 57
2020-01-19 08:00:00 13.2 8 Este 28 Norte 0 -- -- 55
2020-01-19 07:00:00 13.7 7 Sur 60 Norte 0 -- -- 57
2020-01-19 06:00:00 14.4 33 Norte 56 Norte 0 -- -- 58
2020-01-19 05:00:00 15.1 15 Norte 37 Noroeste 0 -- -- 53
2020-01-19 04:00:00 14.8 10 Norte 45 Norte 0 -- -- 61
2020-01-19 03:00:00 13.2 14 Norte 31 Noroeste 0 -- -- 84
2020-01-19 02:00:00 12.4 6 Nordeste 13 Nordeste 0 -- -- 90
2020-01-19 01:00:00 12.3 4 Noroeste 13 Este 0 -- -- 89
2020-01-19 00:00:00 14.6 6 Noroeste 19 Noroeste 0 -- -- 87
2020-01-18 23:00:00 13.3 6 Oeste 18 Noroeste 0 -- -- 92
2020-01-18 22:00:00 10.2 6 Nordeste 13 Nordeste 0 -- -- 94
2020-01-18 21:00:00 10.4 7 Norte 11 Norte 0 -- -- 92
2020-01-18 20:00:00 11.8 4 Norte 8 Norte 0 -- -- 86
2020-01-18 19:00:00 14.9 5 Oeste 18 Oeste 0 -- -- 74
2020-01-18 18:00:00 15.1 11 Oeste 24 Oeste 0 -- -- 72
2020-01-18 17:00:00 15.3 10 Oeste 21 Sudoeste 0 -- -- 77
2020-01-18 16:00:00 15.5 8 Sudoeste 15 Oeste 0 -- -- 71
2020-01-18 15:00:00 15.6 3 Noroeste 12 Noroeste 0 -- -- 76
2020-01-18 14:00:00 14 6 Norte 11 Nordeste 0 -- -- 84
2020-01-18 13:00:00 13.8 5 Nordeste 9 Nordeste 0.4 -- -- 85
2020-01-18 12:00:00 14.2 5 Nordeste 14 Oeste 0 -- -- 80
2020-01-18 11:00:00 15.4 5 Oeste 14 Sudoeste 0 -- -- 70
2020-01-18 10:00:00 12.4 5 Norte 9 Nordeste 0 -- -- 77
2020-01-18 09:00:00 10.3 5 Norte 12 Este 0 -- -- 80
2020-01-18 08:00:00 11.3 8 Nordeste 15 Nordeste 0 -- -- 70
2020-01-18 07:00:00 11.1 9 Nordeste 20 Nordeste 0 -- -- 71
2020-01-18 06:00:00 11.4 11 Nordeste 21 Nordeste 0 -- -- 70
2020-01-18 05:00:00 10.7 11 Nordeste 17 Nordeste 0 -- -- 74
2020-01-18 04:00:00 9.9 10 Nordeste 14 Norte 0 -- -- 80
2020-01-18 03:00:00 10.3 6 Este 11 Este 0 -- -- 81
2020-01-18 02:00:00 13.8 5 Nordeste 27 Nordeste 0 -- -- 64
2020-01-18 01:00:00 15 19 Nordeste 32 Nordeste 0 -- -- 60
2020-01-18 00:00:00 15 22 Nordeste 31 Nordeste 0 -- -- 61
2020-01-17 23:00:00 14.7 14 Nordeste 27 Nordeste 0 -- -- 63
2020-01-17 22:00:00 14.8 15 Nordeste 24 Este 0 -- -- 64
2020-01-17 21:00:00 11.4 10 Nordeste 15 Nordeste 0 -- -- 84
2020-01-17 20:00:00 11.7 8 Norte 13 Norte 0 -- -- 90
2020-01-17 19:00:00 12.9 6 Norte 10 Nordeste 0 -- -- 86
2020-01-17 18:00:00 16.4 4 Sudeste 23 Oeste 0 -- -- 76
2020-01-17 17:00:00 17.8 10 Oeste 31 Sudoeste 0 -- -- 71
2020-01-17 16:00:00 18.7 14 Oeste 27 Oeste 0 -- -- 67
2020-01-17 15:00:00 20 15 Oeste 26 Noroeste 0 -- -- 60
2020-01-17 14:00:00 19.7 12 Noroeste 27 Oeste 0 -- -- 51
2020-01-17 13:00:00 21.1 14 Norte 30 Nordeste 0 -- -- 45
2020-01-17 12:00:00 18.1 11 Oeste 22 Oeste 0 -- -- 59
2020-01-17 11:00:00 16.3 5 Sudoeste 9 Oeste 0 -- -- 55
2020-01-17 10:00:00 11.1 4 Este 9 Norte 0 -- -- 83
2020-01-17 09:00:00 6.4 5 Norte 12 Este 0 -- -- 92
2020-01-17 08:00:00 5.6 6 Norte 12 Norte 0 -- -- 93
2020-01-17 07:00:00 5.9 7 Norte 12 Norte 0 -- -- 93
2020-01-17 06:00:00 6.1 5 Norte 12 Norte 0 -- -- 92
2020-01-17 05:00:00 6.1 7 Norte 13 Nordeste 0 -- -- 92
2020-01-17 04:00:00 6.3 8 Nordeste 12 Norte 0 -- -- 91
2020-01-17 03:00:00 6.8 8 Norte 15 Nordeste 0 -- -- 86
2020-01-17 02:00:00 6.7 6 Norte 11 Nordeste 0 -- -- 88
2020-01-17 01:00:00 7.1 9 Nordeste 11 Nordeste 0 -- -- 92
2020-01-17 00:00:00 7.1 6 Nordeste 10 Norte 0 -- -- 92
2020-01-16 23:00:00 7.7 5 Norte 11 Nordeste 0 -- -- 92
2020-01-16 22:00:00 8 8 Norte 12 Norte 0 -- -- 93
2020-01-16 21:00:00 8.9 6 Norte 11 Nordeste 0 -- -- 93
2020-01-16 20:00:00 9.7 8 Norte 12 Norte 0 -- -- 92
2020-01-16 19:00:00 11.8 7 Norte 9 Norte 0 -- -- 83
2020-01-16 18:00:00 15.6 4 Sudoeste 11 Sudoeste 0 -- -- 76
2020-01-16 17:00:00 16.6 7 Sudoeste 13 Sudoeste 0 -- -- 68
2020-01-16 16:00:00 17.5 5 Sudoeste 11 Sudoeste 0 -- -- 55
2020-01-16 15:00:00 17.7 7 Sur 13 Sur 0 -- -- 59
2020-01-16 14:00:00 17.8 8 Sudoeste 14 Sur 0 -- -- 60
2020-01-16 13:00:00 19.5 5 Sudoeste 10 Sudoeste 0 -- -- 51
2020-01-16 12:00:00 18.4 2 Este 8 Nordeste 0 -- -- 49
2020-01-16 11:00:00 15.6 6 Nordeste 18 Nordeste 0 -- -- 55
2020-01-16 10:00:00 12 10 Nordeste 17 Nordeste 0 -- -- 59
2020-01-16 09:00:00 8 9 Nordeste 19 Nordeste 0 -- -- 73
2020-01-16 08:00:00 7.3 8 Nordeste 15 Nordeste 0 -- -- 74
2020-01-16 07:00:00 6 6 Nordeste 15 Nordeste 0 -- -- 84
2020-01-16 06:00:00 6.4 9 Norte 14 Norte 0 -- -- 85
2020-01-16 05:00:00 5.5 4 Nordeste 13 Norte 0 -- -- 87
2020-01-16 04:00:00 5.9 7 Nordeste 13 Norte 0 -- -- 88
2020-01-16 03:00:00 6.5 7 Nordeste 13 Nordeste 0 -- -- 84
2020-01-16 02:00:00 6.7 8 Nordeste 12 Nordeste 0 -- -- 88
2020-01-16 01:00:00 7.4 5 Norte 14 Nordeste 0 -- -- 84
2020-01-16 00:00:00 8.3 8 Nordeste 17 Nordeste 0 -- -- 87
2020-01-15 23:00:00 7.9 7 Nordeste 11 Nordeste 0 -- -- 93
2020-01-15 22:00:00 8.3 6 Nordeste 10 Nordeste 0 -- -- 93
2020-01-15 21:00:00 8.9 7 Nordeste 12 Norte 0 -- -- 92
2020-01-15 20:00:00 9.6 8 Nordeste 10 Norte 0 -- -- 91
2020-01-15 19:00:00 10.8 7 Norte 9 Norte 0 -- -- 86
2020-01-15 18:00:00 15.5 3 Sur 8 Sudoeste 0 -- -- 70
2020-01-15 17:00:00 16.5 4 Sur 14 Sur 0 -- -- 66
2020-01-15 16:00:00 16.9 8 Sudoeste 15 Sudoeste 0 -- -- 65
2020-01-15 15:00:00 17 10 Sudoeste 19 Sur 0 -- -- 62
2020-01-15 14:00:00 17.3 9 Sur 19 Sudoeste 0 -- -- 57
2020-01-15 13:00:00 17 9 Sudoeste 17 Sur 0 -- -- 53
2020-01-15 12:00:00 16.8 3 Sudoeste 10 Sudoeste 0 -- -- 55
2020-01-15 11:00:00 14 6 Nordeste 13 Nordeste 0 -- -- 63
2020-01-15 10:00:00 10.6 6 Nordeste 12 Nordeste 0 -- -- 77
2020-01-15 09:00:00 6.1 7 Norte 10 Norte 0 -- -- 90
2020-01-15 08:00:00 5.9 8 Norte 12 Norte 0 -- -- 88
2020-01-15 07:00:00 6.8 6 Nordeste 12 Norte 0 -- -- 83
2020-01-15 06:00:00 7.1 8 Nordeste 10 Nordeste 0 -- -- 85
2020-01-15 05:00:00 7.6 5 Norte 15 Nordeste 0 -- -- 81
2020-01-15 04:00:00 7.2 10 Nordeste 14 Nordeste 0 -- -- 84
2020-01-15 03:00:00 6.9 8 Nordeste 13 Nordeste 0 -- -- 84
2020-01-15 02:00:00 7 8 Norte 13 Norte 0 -- -- 87
2020-01-15 01:00:00 6.8 8 Nordeste 10 Nordeste 0 -- -- 87
2020-01-15 00:00:00 8.2 8 Norte 12 Norte 0 -- -- 80
2020-01-14 23:00:00 7.5 7 Norte 12 Nordeste 0 -- -- 88
2020-01-14 22:00:00 7.9 7 Norte 13 Norte 0 -- -- 90
2020-01-14 21:00:00 8.3 6 Norte 13 Nordeste 0 -- -- 91
2020-01-14 20:00:00 8.8 7 Norte 10 Norte 0 -- -- 90
2020-01-14 19:00:00 10.5 5 Norte 9 Oeste 0 -- -- 84
2020-01-14 18:00:00 14.8 7 Oeste 22 Oeste 0 -- -- 68
2020-01-14 17:00:00 15.4 13 Oeste 28 Oeste 0 -- -- 66
2020-01-14 16:00:00 16.1 12 Oeste 31 Oeste 0 -- -- 62
2020-01-14 15:00:00 16.4 13 Oeste 26 Oeste 0 -- -- 61
2020-01-14 14:00:00 16.4 12 Oeste 26 Oeste 0 -- -- 57
2020-01-14 13:00:00 16.1 8 Oeste 23 Noroeste 0 -- -- 56
2020-01-14 12:00:00 16.3 8 Oeste 16 Oeste 0 -- -- 56
2020-01-14 11:00:00 13.8 9 Nordeste 17 Nordeste 0 -- -- 56
2020-01-14 10:00:00 10.5 8 Nordeste 18 Este 0 -- -- 69
2020-01-14 09:00:00 5 8 Nordeste 12 Norte 0 -- -- 88
2020-01-14 08:00:00 4.1 4 Nordeste 13 Nordeste 0 -- -- 88
2020-01-14 07:00:00 4.3 7 Nordeste 18 Nordeste 0 -- -- 92
2020-01-14 06:00:00 4 6 Norte 10 Norte 0 -- -- 91
2020-01-14 05:00:00 4.4 5 Norte 10 Norte 0 -- -- 93
2020-01-14 04:00:00 5.5 8 Norte 12 Nordeste 0 -- -- 94
2020-01-14 03:00:00 6.2 5 Norte 10 Norte 0 -- -- 93
2020-01-14 02:00:00 6.9 7 Nordeste 12 Nordeste 0 -- -- 95
2020-01-14 01:00:00 7.1 8 Norte 14 Nordeste 0 -- -- 95
2020-01-14 00:00:00 7.1 5 Nordeste 10 Nordeste 0 -- -- 94
2020-01-13 23:00:00 7.9 6 Norte 12 Norte 0 -- -- 95
2020-01-13 22:00:00 8.1 7 Norte 9 Norte 0 -- -- 94
2020-01-13 21:00:00 8.8 5 Norte 8 Norte 0 -- -- 92
2020-01-13 20:00:00 11 5 Norte 7 Nordeste 0 -- -- 87
2020-01-13 19:00:00 12.7 4 Norte 10 Sudoeste 0 -- -- 80
2020-01-13 18:00:00 14.2 5 Sudoeste 13 Oeste 0 -- -- 73
2020-01-13 17:00:00 15.3 6 Oeste 14 Sudoeste 0 -- -- 70
2020-01-13 16:00:00 15.9 9 Sudoeste 16 Sur 0 -- -- 67
2020-01-13 15:00:00 15.9 9 Sudoeste 18 Sudoeste 0 -- -- 67
2020-01-13 14:00:00 15.8 6 Sudoeste 15 Sudoeste 0 -- -- 68
2020-01-13 13:00:00 15.9 9 Sudoeste 15 Sudoeste 0 -- -- 69
2020-01-13 12:00:00 16.3 2 Sudoeste 12 Este 0 -- -- 62
2020-01-13 11:00:00 13.5 10 Nordeste 21 Nordeste 0 -- -- 58
2020-01-13 10:00:00 10.5 12 Nordeste 21 Nordeste 0 -- -- 66
2020-01-13 09:00:00 7.3 11 Nordeste 22 Nordeste 0 -- -- 78
2020-01-13 08:00:00 6.6 10 Nordeste 18 Nordeste 0 -- -- 84
2020-01-13 07:00:00 6.9 12 Nordeste 21 Nordeste 0 -- -- 85
2020-01-13 06:00:00 6.9 9 Nordeste 16 Nordeste 0 -- -- 88
2020-01-13 05:00:00 7 8 Nordeste 15 Nordeste 0 -- -- 89
2020-01-13 04:00:00 7.3 9 Nordeste 14 Este 0 -- -- 90
2020-01-13 03:00:00 8 9 Nordeste 14 Nordeste 0 -- -- 89
2020-01-13 02:00:00 8.2 10 Nordeste 14 Nordeste 0 -- -- 91
2020-01-13 01:00:00 9.1 8 Nordeste 14 Nordeste 0 -- -- 89
2020-01-13 00:00:00 9.9 6 Nordeste 11 Nordeste 0 -- -- 88
2020-01-12 23:00:00 11.2 6 Nordeste 9 Nordeste 0 -- -- 91
2020-01-12 22:00:00 11.9 4 Nordeste 6 Nordeste 0 -- -- 92
2020-01-12 21:00:00 12.5 2 Norte 4 Norte 0 -- -- 90
2020-01-12 20:00:00 12.8 2 Norte 3 Norte 0 -- -- 90
2020-01-12 19:00:00 13.2 0 Calma 8 Sudoeste 0 -- -- 85
2020-01-12 18:00:00 14.6 5 Sudoeste 14 Sudoeste 0 -- -- 76
2020-01-12 17:00:00 15.3 9 Sudoeste 19 Sudoeste 0 -- -- 74
2020-01-12 16:00:00 15.9 10 Sudoeste 22 Sudoeste 0 -- -- 71
2020-01-12 15:00:00 16.2 11 Sudoeste 21 Oeste 0 -- -- 70
2020-01-12 14:00:00 16 13 Sudoeste 21 Oeste 0 -- -- 69
2020-01-12 13:00:00 15.7 13 Sudoeste 21 Oeste 0 -- -- 69
2020-01-12 12:00:00 16.6 8 Oeste 14 Sudoeste 0 -- -- 61
2020-01-12 11:00:00 14.5 7 Este 21 Nordeste 0 -- -- 60
2020-01-12 10:00:00 11.6 12 Nordeste 21 Nordeste 0 -- -- 67
2020-01-12 09:00:00 8.4 10 Nordeste 19 Este 0 -- -- 80
2020-01-12 08:00:00 8.2 11 Nordeste 18 Nordeste 0 -- -- 80
2020-01-12 07:00:00 8 8 Nordeste 17 Nordeste 0 -- -- 82
2020-01-12 06:00:00 8.3 9 Nordeste 17 Nordeste 0 -- -- 82
2020-01-12 05:00:00 8.5 10 Nordeste 16 Nordeste 0 -- -- 83
2020-01-12 04:00:00 8.6 9 Nordeste 17 Nordeste 0 -- -- 82
2020-01-12 03:00:00 9.4 10 Nordeste 17 Nordeste 0 -- -- 81
2020-01-12 02:00:00 9.6 9 Nordeste 14 Nordeste 0 -- -- 84
2020-01-12 01:00:00 8.8 8 Nordeste 10 Nordeste 0 -- -- 89
2020-01-12 00:00:00 9.1 5 Nordeste 12 Nordeste 0 -- -- 88
2020-01-11 23:00:00 9.1 9 Nordeste 14 Nordeste 0 -- -- 88
2020-01-11 22:00:00 9.8 8 Nordeste 12 Nordeste 0 -- -- 84
2020-01-11 21:00:00 10.3 9 Nordeste 15 Nordeste 0 -- -- 83
2020-01-11 20:00:00 9.3 7 Nordeste 10 Nordeste 0 -- -- 88
2020-01-11 19:00:00 10.5 8 Norte 10 Norte 0 -- -- 83
2020-01-11 18:00:00 15 4 Noroeste 9 Oeste 0 -- -- 68
2020-01-11 17:00:00 16.9 5 Oeste 12 Oeste 0 -- -- 64
2020-01-11 16:00:00 17.1 8 Sudoeste 16 Sudoeste 0 -- -- 60
2020-01-11 15:00:00 17.1 8 Sudoeste 15 Sudoeste 0 -- -- 62
2020-01-11 14:00:00 17 8 Sudoeste 15 Oeste 0 -- -- 59
2020-01-11 13:00:00 17.5 6 Sudoeste 10 Sudoeste 0 -- -- 55
2020-01-11 12:00:00 17.5 3 Este 19 Este 0 -- -- 47
2020-01-11 11:00:00 14.2 11 Nordeste 19 Nordeste 0 -- -- 54
2020-01-11 10:00:00 9.3 10 Nordeste 19 Nordeste 0 -- -- 66
2020-01-11 09:00:00 8.3 10 Nordeste 15 Nordeste 0 -- -- 70
2020-01-11 08:00:00 7.9 11 Nordeste 18 Nordeste 0 -- -- 72
2020-01-11 07:00:00 8.4 9 Nordeste 17 Nordeste 0 -- -- 70
2020-01-11 06:00:00 8.6 10 Nordeste 19 Nordeste 0 -- -- 70
2020-01-11 05:00:00 8.2 9 Nordeste 21 Nordeste 0 -- -- 73
2020-01-11 04:00:00 8.6 9 Nordeste 15 Norte 0 -- -- 72
2020-01-11 03:00:00 9.2 9 Nordeste 24 Nordeste 0 -- -- 70
2020-01-11 02:00:00 9.1 11 Nordeste 20 Nordeste 0 -- -- 73
2020-01-11 01:00:00 7.8 8 Norte 12 Norte 0 -- -- 86
2020-01-11 00:00:00 8.6 5 Este 12 Nordeste 0 -- -- 88
2020-01-10 23:00:00 8.9 4 Norte 10 Nordeste 0 -- -- 90
2020-01-10 22:00:00 9.9 5 Nordeste 10 Este 0 -- -- 89
2020-01-10 21:00:00 10.3 2 Noroeste 8 Este 0 -- -- 87
2020-01-10 20:00:00 12 3 Sudeste 6 Sur 0 -- -- 84
2020-01-10 19:00:00 12.7 0 Calma 9 Norte 0 -- -- 84
2020-01-10 18:00:00 15.4 0 Calma 9 Sur 0 -- -- 76
2020-01-10 17:00:00 16.5 4 Sur 9 Sudoeste 0 -- -- 66
2020-01-10 16:00:00 17.4 5 Sur 10 Sur 0 -- -- 61
2020-01-10 15:00:00 17.3 6 Oeste 18 Sur 0 -- -- 63
2020-01-10 14:00:00 16.6 10 Sudoeste 24 Sudoeste 0 -- -- 64
2020-01-10 13:00:00 16.4 15 Oeste 27 Oeste 0 -- -- 63
2020-01-10 12:00:00 16.2 12 Oeste 22 Oeste 0 -- -- 65
2020-01-10 11:00:00 16.2 4 Nordeste 23 Nordeste 0 -- -- 63
2020-01-10 10:00:00 12.5 9 Nordeste 21 Nordeste 0 -- -- 73
2020-01-10 09:00:00 8.6 9 Este 18 Nordeste 0 -- -- 88
2020-01-10 08:00:00 7.9 5 Este 14 Este 0 -- -- 91
2020-01-10 07:00:00 6.4 4 Nordeste 13 Norte 0 -- -- 94
2020-01-10 06:00:00 6.2 8 Norte 11 Norte 0 -- -- 95
2020-01-10 05:00:00 6.2 5 Norte 10 Norte 0 -- -- 94
2020-01-10 04:00:00 7 6 Norte 12 Nordeste 0 -- -- 94
2020-01-10 03:00:00 8 10 Nordeste 17 Nordeste 0 -- -- 95
2020-01-10 02:00:00 8.3 5 Noroeste 11 Nordeste 0 -- -- 94
2020-01-10 01:00:00 9.1 5 Nordeste 11 Nordeste 0 -- -- 91
2020-01-10 00:00:00 10 8 Nordeste 12 Nordeste 0 -- -- 91
2020-01-09 23:00:00 9.6 7 Nordeste 13 Nordeste 0 -- -- 93
2020-01-09 22:00:00 9.2 6 Nordeste 10 Norte 0 -- -- 93
2020-01-09 21:00:00 9.5 7 Norte 10 Norte 0 -- -- 92
2020-01-09 20:00:00 10.1 6 Norte 10 Norte 0 -- -- 90
2020-01-09 19:00:00 12.4 5 Norte 13 Sudoeste 0 -- -- 80
2020-01-09 18:00:00 14.5 4 Sudoeste 13 Sudoeste 0 -- -- 71
2020-01-09 17:00:00 15.2 7 Sudoeste 16 Oeste 0 -- -- 68
2020-01-09 16:00:00 16.3 9 Sudoeste 18 Sudoeste 0 -- -- 65
2020-01-09 15:00:00 16.2 10 Sudoeste 18 Sudoeste 0 -- -- 63
2020-01-09 14:00:00 17 9 Oeste 15 Sudoeste 0 -- -- 59
2020-01-09 13:00:00 16.4 5 Oeste 14 Sudoeste 0 -- -- 60
2020-01-09 12:00:00 14.7 5 Este 13 Este 0 -- -- 68
2020-01-09 11:00:00 13.1 7 Nordeste 15 Nordeste 0 -- -- 72
2020-01-09 10:00:00 12 9 Nordeste 20 Nordeste 0 -- -- 75
2020-01-09 09:00:00 11.4 10 Nordeste 18 Nordeste 0 -- -- 77
2020-01-09 08:00:00 11 9 Nordeste 15 Nordeste 0 -- -- 80
2020-01-09 07:00:00 10.9 8 Nordeste 17 Nordeste 0 -- -- 82
2020-01-09 06:00:00 10.8 8 Nordeste 14 Nordeste 0 -- -- 84
2020-01-09 05:00:00 10.9 9 Nordeste 17 Este 0 -- -- 86
2020-01-09 04:00:00 10.6 8 Nordeste 14 Este 0 -- -- 89
2020-01-09 03:00:00 10.5 8 Nordeste 12 Nordeste 0 -- -- 91
2020-01-09 02:00:00 10.3 8 Nordeste 14 Nordeste 0 -- -- 94
2020-01-09 01:00:00 9.7 8 Nordeste 14 Nordeste 0 -- -- 96
2020-01-09 00:00:00 9.1 10 Nordeste 14 Nordeste 0 -- -- 97
2020-01-08 23:00:00 9.1 8 Nordeste 13 Nordeste 0 -- -- 97
2020-01-08 22:00:00 8.8 7 Nordeste 10 Nordeste 0 -- -- 96
2020-01-08 21:00:00 8.7 6 Nordeste 10 Norte 0 -- -- 95
2020-01-08 20:00:00 9.1 6 Norte 9 Nordeste 0 -- -- 92
2020-01-08 19:00:00 10.4 5 Norte 6 Nordeste 0 -- -- 88
2020-01-08 18:00:00 14.4 2 Sudoeste 9 Sur 0 -- -- 79
2020-01-08 17:00:00 15.3 6 Sudoeste 10 Sur 0 -- -- 73
2020-01-08 16:00:00 16 6 Sudoeste 12 Sudoeste 0 -- -- 72
2020-01-08 15:00:00 16.6 7 Sudoeste 13 Sudoeste 0 -- -- 72
2020-01-08 14:00:00 16.2 7 Sudoeste 15 Sudoeste 0 -- -- 72
2020-01-08 13:00:00 15.7 8 Sudoeste 14 Sudoeste 0 -- -- 73
2020-01-08 12:00:00 16.1 5 Sudoeste 10 Oeste 0 -- -- 70
2020-01-08 11:00:00 14 4 Nordeste 10 Nordeste 0 -- -- 76
2020-01-08 10:00:00 8.9 5 Nordeste 11 Nordeste 0 -- -- 89
2020-01-08 09:00:00 5.4 8 Nordeste 11 Norte 0 -- -- 95
2020-01-08 08:00:00 5.3 8 Norte 12 Norte 0 -- -- 95
2020-01-08 07:00:00 5.6 7 Norte 11 Nordeste 0 -- -- 96
2020-01-08 06:00:00 5.5 7 Nordeste 10 Nordeste 0 -- -- 96
2020-01-08 05:00:00 5.5 6 Nordeste 10 Nordeste 0 -- -- 94
2020-01-08 04:00:00 6 6 Nordeste 10 Nordeste 0 -- -- 93
2020-01-08 03:00:00 6.5 6 Nordeste 11 Nordeste 0 -- -- 92
2020-01-08 02:00:00 6.9 6 Norte 12 Nordeste 0 -- -- 93
2020-01-08 01:00:00 7.4 6 Nordeste 12 Nordeste 0 -- -- 94
2020-01-08 00:00:00 7.2 6 Norte 9 Norte 0 -- -- 96
2020-01-07 23:00:00 7.9 5 Norte 13 Nordeste 0 -- -- 95
2020-01-07 22:00:00 8.6 8 Nordeste 12 Nordeste 0 -- -- 96
2020-01-07 21:00:00 9.3 7 Nordeste 11 Nordeste 0 -- -- 95
2020-01-07 20:00:00 9.2 6 Norte 9 Norte 0 -- -- 93
2020-01-07 19:00:00 10.9 4 Nordeste 7 Nordeste 0 -- -- 86
2020-01-07 18:00:00 14.4 0 Calma 7 Sur 0 -- -- 78
2020-01-07 17:00:00 15.9 4 Sudoeste 12 Sur 0 -- -- 70
2020-01-07 16:00:00 16.2 6 Sudoeste 12 Sudoeste 0 -- -- 71
2020-01-07 15:00:00 16.2 7 Sudoeste 15 Sudoeste 0 -- -- 68
2020-01-07 14:00:00 16.1 9 Sudoeste 14 Sudoeste 0 -- -- 68
2020-01-07 13:00:00 16.6 6 Sudoeste 12 Oeste 0 -- -- 66
2020-01-07 12:00:00 16.7 3 Sudoeste 11 Nordeste 0 -- -- 62
2020-01-07 11:00:00 13.5 9 Nordeste 14 Nordeste 0 -- -- 61
2020-01-07 10:00:00 10.1 8 Nordeste 16 Nordeste 0 -- -- 70
2020-01-07 09:00:00 6.5 11 Nordeste 15 Nordeste 0 -- -- 82
2020-01-07 08:00:00 6.1 10 Nordeste 19 Nordeste 0 -- -- 81
2020-01-07 07:00:00 6.5 10 Nordeste 14 Nordeste 0 -- -- 83
2020-01-07 06:00:00 6.3 8 Nordeste 15 Nordeste 0 -- -- 86
2020-01-07 05:00:00 7 10 Nordeste 19 Nordeste 0 -- -- 85
2020-01-07 04:00:00 7.1 10 Nordeste 15 Nordeste 0 -- -- 89
2020-01-07 03:00:00 7.2 9 Nordeste 15 Nordeste 0 -- -- 89
2020-01-07 02:00:00 7.4 10 Nordeste 15 Nordeste 0 -- -- 91
2020-01-07 01:00:00 7.6 9 Nordeste 14 Nordeste 0 -- -- 91
2020-01-07 00:00:00 7.9 9 Nordeste 14 Nordeste 0 -- -- 92
2020-01-06 23:00:00 8.2 9 Nordeste 12 Nordeste 0 -- -- 92
2020-01-06 22:00:00 7.8 8 Nordeste 11 Nordeste 0 -- -- 92
2020-01-06 21:00:00 8.2 8 Nordeste 11 Nordeste 0 -- -- 91
2020-01-06 20:00:00 8.7 8 Nordeste 10 Nordeste 0 -- -- 89
2020-01-06 19:00:00 9.7 7 Norte 9 Norte 0 -- -- 86
2020-01-06 18:00:00 13.8 0 Calma 8 Oeste 0 -- -- 76
2020-01-06 17:00:00 15.4 5 Sudoeste 13 Sur 0 -- -- 65
2020-01-06 16:00:00 16.1 6 Sudoeste 15 Sudoeste 0 -- -- 61
2020-01-06 15:00:00 17 4 Sudoeste 13 Sudoeste 0 -- -- 57
2020-01-06 14:00:00 16.7 7 Oeste 16 Sur 0 -- -- 63
2020-01-06 13:00:00 16.1 9 Sudoeste 13 Sudoeste 0 -- -- 65
2020-01-06 12:00:00 16.1 3 Sudeste 14 Este 0 -- -- 63
2020-01-06 11:00:00 12.9 9 Nordeste 19 Este 0 -- -- 67
2020-01-06 10:00:00 10.3 13 Nordeste 21 Este 0 -- -- 70